Avon Lake, Ohio
Current Conditions -  °F | °C
As of 10:51 AM on Thursday 23 Oct 2014 (Local Time) from KCLE Reporting Station
Broken Clouds Broken Clouds  
Wind Chill: 54°   Ceiling: 1400
Heat Index: 54°   Visibility: 10mi
Dew Point: 47°   Wind: 8mph
Humidity: 77%   Direction: 340°NNW
Pressure: 30.23"   Gusts: NA
Location:  41.51°N, 82.02°W
Report Text: KCLE 231451Z 34007KT 10SM BKN014 12/08 A3023 RMK AO2 SLP240 T01220083 51003
Loading
Personal Weather Stations






























Interactive Weather Map
Tropical Storm Tracking
New forecast layout! Learn more

10-Day Weather Forecast

Advertisements
Track Severe Weather on mobile